sensor_id;sensor_type;location;lat;lon;timestamp;temperature;humidity
31725;DHT22;18306;40.960;14.836;2023-05-15T00:00:08;19.20;99.90
31725;DHT22;18306;40.960;14.836;2023-05-15T00:02:43;19.10;99.90
31725;DHT22;18306;40.960;14.836;2023-05-15T00:05:10;19.10;99.90
31725;DHT22;18306;40.960;14.836;2023-05-15T00:07:40;19.00;99.90
31725;DHT22;18306;40.960;14.836;2023-05-15T00:10:07;19.00;99.90
31725;DHT22;18306;40.960;14.836;2023-05-15T00:12:34;18.90;99.90
31725;DHT22;18306;40.960;14.836;2023-05-15T00:15:02;19.00;99.90
31725;DHT22;18306;40.960;14.836;2023-05-15T00:17:30;19.00;99.90
31725;DHT22;18306;40.960;14.836;2023-05-15T00:19:57;19.00;99.90
31725;DHT22;18306;40.960;14.836;2023-05-15T00:22:25;19.00;99.90
31725;DHT22;18306;40.960;14.836;2023-05-15T00:24:52;18.90;99.90
31725;DHT22;18306;40.960;14.836;2023-05-15T00:27:19;18.80;99.90
31725;DHT22;18306;40.960;14.836;2023-05-15T00:29:46;18.70;99.90
31725;DHT22;18306;40.960;14.836;2023-05-15T00:32:16;18.70;99.90
31725;DHT22;18306;40.960;14.836;2023-05-15T00:34:44;18.80;99.90
31725;DHT22;18306;40.960;14.836;2023-05-15T00:37:11;19.00;99.90
31725;DHT22;18306;40.960;14.836;2023-05-15T00:39:39;19.00;99.90
31725;DHT22;18306;40.960;14.836;2023-05-15T00:42:06;19.00;99.90
31725;DHT22;18306;40.960;14.836;2023-05-15T00:44:34;18.90;99.90
31725;DHT22;18306;40.960;14.836;2023-05-15T00:47:02;18.90;99.90
31725;DHT22;18306;40.960;14.836;2023-05-15T00:49:31;18.90;99.90
31725;DHT22;18306;40.960;14.836;2023-05-15T00:52:01;19.00;99.90
31725;DHT22;18306;40.960;14.836;2023-05-15T00:54:29;19.10;99.90
31725;DHT22;18306;40.960;14.836;2023-05-15T00:56:59;19.00;99.90
31725;DHT22;18306;40.960;14.836;2023-05-15T00:59:27;18.90;99.90
31725;DHT22;18306;40.960;14.836;2023-05-15T01:01:56;18.80;99.90
31725;DHT22;18306;40.960;14.836;2023-05-15T01:04:23;18.80;99.90
31725;DHT22;18306;40.960;14.836;2023-05-15T01:06:50;18.80;99.90
31725;DHT22;18306;40.960;14.836;2023-05-15T01:09:22;18.70;99.90
31725;DHT22;18306;40.960;14.836;2023-05-15T01:11:53;18.70;99.90
31725;DHT22;18306;40.960;14.836;2023-05-15T01:14:23;18.70;99.90
31725;DHT22;18306;40.960;14.836;2023-05-15T01:16:50;18.80;99.90
31725;DHT22;18306;40.960;14.836;2023-05-15T01:19:17;19.00;99.90
31725;DHT22;18306;40.960;14.836;2023-05-15T01:27:49;18.80;99.90
31725;DHT22;18306;40.960;14.836;2023-05-15T01:38:40;18.60;99.90
31725;DHT22;18306;40.960;14.836;2023-05-15T01:41:30;18.40;99.90
31725;DHT22;18306;40.960;14.836;2023-05-15T01:44:07;18.30;99.90
31725;DHT22;18306;40.960;14.836;2023-05-15T01:46:38;18.30;99.90
31725;DHT22;18306;40.960;14.836;2023-05-15T01:49:09;18.30;99.90
31725;DHT22;18306;40.960;14.836;2023-05-15T01:51:38;18.30;99.90
31725;DHT22;18306;40.960;14.836;2023-05-15T01:54:08;18.40;99.90
31725;DHT22;18306;40.960;14.836;2023-05-15T01:56:39;18.50;99.90
31725;DHT22;18306;40.960;14.836;2023-05-15T01:59:08;18.50;99.90
31725;DHT22;18306;40.960;14.836;2023-05-15T02:01:37;18.60;99.90
31725;DHT22;18306;40.960;14.836;2023-05-15T02:04:05;18.50;99.90
31725;DHT22;18306;40.960;14.836;2023-05-15T02:06:33;18.40;99.90
31725;DHT22;18306;40.960;14.836;2023-05-15T02:09:01;18.40;99.90
31725;DHT22;18306;40.960;14.836;2023-05-15T02:11:30;18.50;99.90
31725;DHT22;18306;40.960;14.836;2023-05-15T02:13:58;18.60;99.90
31725;DHT22;18306;40.960;14.836;2023-05-15T02:16:27;18.60;99.90
31725;DHT22;18306;40.960;14.836;2023-05-15T02:18:54;18.70;99.90
31725;DHT22;18306;40.960;14.836;2023-05-15T02:21:22;18.70;99.90
31725;DHT22;18306;40.960;14.836;2023-05-15T02:23:52;18.60;99.90
31725;DHT22;18306;40.960;14.836;2023-05-15T02:37:52;18.40;99.90
31725;DHT22;18306;40.960;14.836;2023-05-15T02:40:22;18.40;99.90
31725;DHT22;18306;40.960;14.836;2023-05-15T02:42:52;18.40;99.90
31725;DHT22;18306;40.960;14.836;2023-05-15T02:45:21;18.50;99.90
31725;DHT22;18306;40.960;14.836;2023-05-15T02:47:51;18.40;99.90
31725;DHT22;18306;40.960;14.836;2023-05-15T02:50:18;18.50;99.90
31725;DHT22;18306;40.960;14.836;2023-05-15T02:52:45;18.40;99.90
31725;DHT22;18306;40.960;14.836;2023-05-15T02:55:12;18.10;99.90
31725;DHT22;18306;40.960;14.836;2023-05-15T02:57:39;17.80;99.90
31725;DHT22;18306;40.960;14.836;2023-05-15T03:00:07;17.90;99.90
31725;DHT22;18306;40.960;14.836;2023-05-15T03:02:37;18.00;99.90
31725;DHT22;18306;40.960;14.836;2023-05-15T03:05:05;18.10;99.90
31725;DHT22;18306;40.960;14.836;2023-05-15T03:07:35;18.10;99.90
31725;DHT22;18306;40.960;14.836;2023-05-15T03:10:02;18.20;99.90
31725;DHT22;18306;40.960;14.836;2023-05-15T03:12:30;18.20;99.90
31725;DHT22;18306;40.960;14.836;2023-05-15T03:14:57;18.10;99.90
31725;DHT22;18306;40.960;14.836;2023-05-15T03:17:27;18.10;99.90
31725;DHT22;18306;40.960;14.836;2023-05-15T03:19:55;18.20;99.90
31725;DHT22;18306;40.960;14.836;2023-05-15T03:22:22;18.30;99.90
31725;DHT22;18306;40.960;14.836;2023-05-15T03:24:52;18.40;99.90
31725;DHT22;18306;40.960;14.836;2023-05-15T03:27:19;18.50;99.90
31725;DHT22;18306;40.960;14.836;2023-05-15T03:29:46;18.60;99.90
31725;DHT22;18306;40.960;14.836;2023-05-15T03:32:16;18.60;99.90
31725;DHT22;18306;40.960;14.836;2023-05-15T03:34:43;18.60;99.90
31725;DHT22;18306;40.960;14.836;2023-05-15T03:37:10;18.60;99.90
31725;DHT22;18306;40.960;14.836;2023-05-15T03:39:37;18.50;99.90
31725;DHT22;18306;40.960;14.836;2023-05-15T03:42:05;18.50;99.90
31725;DHT22;18306;40.960;14.836;2023-05-15T03:44:32;18.40;99.90
31725;DHT22;18306;40.960;14.836;2023-05-15T03:46:59;18.40;99.90
31725;DHT22;18306;40.960;14.836;2023-05-15T03:49:26;18.40;99.90
31725;DHT22;18306;40.960;14.836;2023-05-15T03:51:55;18.30;99.90
31725;DHT22;18306;40.960;14.836;2023-05-15T03:54:22;18.30;99.90
31725;DHT22;18306;40.960;14.836;2023-05-15T03:56:52;18.30;99.90
31725;DHT22;18306;40.960;14.836;2023-05-15T03:59:19;18.40;99.90
31725;DHT22;18306;40.960;14.836;2023-05-15T04:01:46;18.50;99.90
31725;DHT22;18306;40.960;14.836;2023-05-15T04:04:13;18.40;99.90
31725;DHT22;18306;40.960;14.836;2023-05-15T04:06:40;18.50;99.90
31725;DHT22;18306;40.960;14.836;2023-05-15T04:09:07;18.50;99.90
31725;DHT22;18306;40.960;14.836;2023-05-15T04:11:34;18.50;99.90
31725;DHT22;18306;40.960;14.836;2023-05-15T04:14:02;18.40;99.90
31725;DHT22;18306;40.960;14.836;2023-05-15T04:16:29;18.30;99.90
31725;DHT22;18306;40.960;14.836;2023-05-15T04:18:56;18.40;99.90
31725;DHT22;18306;40.960;14.836;2023-05-15T04:21:23;18.50;99.90
31725;DHT22;18306;40.960;14.836;2023-05-15T04:23:50;18.40;99.90
31725;DHT22;18306;40.960;14.836;2023-05-15T04:26:17;18.50;99.90
31725;DHT22;18306;40.960;14.836;2023-05-15T04:28:44;18.50;99.90
31725;DHT22;18306;40.960;14.836;2023-05-15T04:31:11;18.40;99.90
31725;DHT22;18306;40.960;14.836;2023-05-15T04:33:38;18.50;99.90
31725;DHT22;18306;40.960;14.836;2023-05-15T04:36:06;18.50;99.90
31725;DHT22;18306;40.960;14.836;2023-05-15T04:38:33;18.40;99.90
31725;DHT22;18306;40.960;14.836;2023-05-15T04:41:00;18.50;99.90
31725;DHT22;18306;40.960;14.836;2023-05-15T04:43:27;18.40;99.90
31725;DHT22;18306;40.960;14.836;2023-05-15T04:45:54;18.50;99.90
31725;DHT22;18306;40.960;14.836;2023-05-15T04:48:21;18.50;99.90
31725;DHT22;18306;40.960;14.836;2023-05-15T04:50:48;18.50;99.90
31725;DHT22;18306;40.960;14.836;2023-05-15T04:53:16;18.50;99.90
31725;DHT22;18306;40.960;14.836;2023-05-15T04:55:44;18.60;99.90
31725;DHT22;18306;40.960;14.836;2023-05-15T04:58:11;18.50;99.90
31725;DHT22;18306;40.960;14.836;2023-05-15T05:00:38;18.50;99.90
31725;DHT22;18306;40.960;14.836;2023-05-15T05:03:05;18.50;99.90
31725;DHT22;18306;40.960;14.836;2023-05-15T05:05:32;18.50;99.90
31725;DHT22;18306;40.960;14.836;2023-05-15T05:07:59;18.60;99.90
31725;DHT22;18306;40.960;14.836;2023-05-15T05:10:28;18.60;99.90
31725;DHT22;18306;40.960;14.836;2023-05-15T05:13:07;18.70;99.90
31725;DHT22;18306;40.960;14.836;2023-05-15T05:15:50;18.60;99.90
31725;DHT22;18306;40.960;14.836;2023-05-15T05:18:34;18.60;99.90
31725;DHT22;18306;40.960;14.836;2023-05-15T05:21:05;18.60;99.90
31725;DHT22;18306;40.960;14.836;2023-05-15T05:23:32;18.50;99.90
31725;DHT22;18306;40.960;14.836;2023-05-15T05:25:59;18.20;99.90
31725;DHT22;18306;40.960;14.836;2023-05-15T05:28:26;18.00;99.90
31725;DHT22;18306;40.960;14.836;2023-05-15T05:30:53;18.00;99.90
31725;DHT22;18306;40.960;14.836;2023-05-15T05:33:21;18.10;99.90
31725;DHT22;18306;40.960;14.836;2023-05-15T05:35:48;18.10;99.90
31725;DHT22;18306;40.960;14.836;2023-05-15T05:38:15;18.10;99.90
31725;DHT22;18306;40.960;14.836;2023-05-15T05:40:42;18.10;99.90
31725;DHT22;18306;40.960;14.836;2023-05-15T05:43:09;18.10;99.90
31725;DHT22;18306;40.960;14.836;2023-05-15T05:45:36;18.00;99.90
31725;DHT22;18306;40.960;14.836;2023-05-15T05:48:03;17.90;99.90
31725;DHT22;18306;40.960;14.836;2023-05-15T05:50:31;17.60;99.90
31725;DHT22;18306;40.960;14.836;2023-05-15T05:52:58;17.70;99.90
31725;DHT22;18306;40.960;14.836;2023-05-15T05:55:25;17.80;99.90
31725;DHT22;18306;40.960;14.836;2023-05-15T05:57:53;17.80;99.90
31725;DHT22;18306;40.960;14.836;2023-05-15T06:00:24;17.60;99.90
31725;DHT22;18306;40.960;14.836;2023-05-15T06:02:56;17.70;99.90
31725;DHT22;18306;40.960;14.836;2023-05-15T06:05:27;17.70;99.90
31725;DHT22;18306;40.960;14.836;2023-05-15T06:07:54;17.60;99.90
31725;DHT22;18306;40.960;14.836;2023-05-15T06:10:22;17.50;99.90
31725;DHT22;18306;40.960;14.836;2023-05-15T06:12:49;17.70;99.90
31725;DHT22;18306;40.960;14.836;2023-05-15T06:15:16;17.60;99.90
31725;DHT22;18306;40.960;14.836;2023-05-15T06:17:43;17.70;99.90
31725;DHT22;18306;40.960;14.836;2023-05-15T06:20:10;18.00;99.90
31725;DHT22;18306;40.960;14.836;2023-05-15T06:22:38;18.00;99.90
31725;DHT22;18306;40.960;14.836;2023-05-15T06:25:05;18.10;99.90
31725;DHT22;18306;40.960;14.836;2023-05-15T06:27:33;18.10;99.90
31725;DHT22;18306;40.960;14.836;2023-05-15T06:30:00;18.10;99.90
31725;DHT22;18306;40.960;14.836;2023-05-15T06:32:27;18.10;99.90
31725;DHT22;18306;40.960;14.836;2023-05-15T06:34:54;18.10;99.90
31725;DHT22;18306;40.960;14.836;2023-05-15T06:37:21;18.10;99.90
31725;DHT22;18306;40.960;14.836;2023-05-15T06:39:48;18.10;99.90
31725;DHT22;18306;40.960;14.836;2023-05-15T06:42:15;18.00;99.90
31725;DHT22;18306;40.960;14.836;2023-05-15T06:44:42;17.90;99.90
31725;DHT22;18306;40.960;14.836;2023-05-15T06:47:09;17.80;99.90
31725;DHT22;18306;40.960;14.836;2023-05-15T06:49:36;17.90;99.90
31725;DHT22;18306;40.960;14.836;2023-05-15T06:52:03;18.00;99.90
31725;DHT22;18306;40.960;14.836;2023-05-15T06:54:31;18.00;99.90
31725;DHT22;18306;40.960;14.836;2023-05-15T06:56:58;18.20;99.90
31725;DHT22;18306;40.960;14.836;2023-05-15T06:59:25;18.30;99.90
31725;DHT22;18306;40.960;14.836;2023-05-15T07:01:52;18.40;99.90
31725;DHT22;18306;40.960;14.836;2023-05-15T07:04:19;18.40;99.90
31725;DHT22;18306;40.960;14.836;2023-05-15T07:06:47;18.40;99.90
31725;DHT22;18306;40.960;14.836;2023-05-15T07:09:14;18.30;99.90
31725;DHT22;18306;40.960;14.836;2023-05-15T07:11:41;18.30;99.90
31725;DHT22;18306;40.960;14.836;2023-05-15T07:14:09;18.20;99.90
31725;DHT22;18306;40.960;14.836;2023-05-15T07:16:36;18.20;99.90
31725;DHT22;18306;40.960;14.836;2023-05-15T07:19:03;18.20;99.90
31725;DHT22;18306;40.960;14.836;2023-05-15T07:21:30;18.10;99.90
31725;DHT22;18306;40.960;14.836;2023-05-15T07:23:58;18.20;99.90
31725;DHT22;18306;40.960;14.836;2023-05-15T07:26:25;18.20;99.90
31725;DHT22;18306;40.960;14.836;2023-05-15T07:28:52;18.20;99.90
31725;DHT22;18306;40.960;14.836;2023-05-15T07:31:19;18.00;99.90
31725;DHT22;18306;40.960;14.836;2023-05-15T07:33:47;18.00;99.90
31725;DHT22;18306;40.960;14.836;2023-05-15T07:36:16;18.10;99.90
31725;DHT22;18306;40.960;14.836;2023-05-15T07:38:43;18.00;99.90
31725;DHT22;18306;40.960;14.836;2023-05-15T07:41:11;18.00;99.90
31725;DHT22;18306;40.960;14.836;2023-05-15T07:43:38;18.00;99.90
31725;DHT22;18306;40.960;14.836;2023-05-15T07:46:08;18.00;99.90
31725;DHT22;18306;40.960;14.836;2023-05-15T07:48:35;18.00;99.90
31725;DHT22;18306;40.960;14.836;2023-05-15T07:51:02;18.00;99.90
31725;DHT22;18306;40.960;14.836;2023-05-15T07:53:30;18.00;99.90
31725;DHT22;18306;40.960;14.836;2023-05-15T07:55:58;18.10;99.90
31725;DHT22;18306;40.960;14.836;2023-05-15T07:58:25;18.10;99.90
31725;DHT22;18306;40.960;14.836;2023-05-15T08:00:54;18.10;99.90
31725;DHT22;18306;40.960;14.836;2023-05-15T08:03:21;18.00;99.90
31725;DHT22;18306;40.960;14.836;2023-05-15T08:05:48;17.80;99.90
31725;DHT22;18306;40.960;14.836;2023-05-15T08:08:15;17.60;99.90
31725;DHT22;18306;40.960;14.836;2023-05-15T08:10:42;17.60;99.90
31725;DHT22;18306;40.960;14.836;2023-05-15T08:13:09;17.60;99.90
31725;DHT22;18306;40.960;14.836;2023-05-15T08:15:36;17.70;99.90
31725;DHT22;18306;40.960;14.836;2023-05-15T08:18:10;17.70;99.90
31725;DHT22;18306;40.960;14.836;2023-05-15T08:20:37;17.50;99.90
31725;DHT22;18306;40.960;14.836;2023-05-15T08:23:13;17.50;99.90
31725;DHT22;18306;40.960;14.836;2023-05-15T08:25:40;17.60;99.90
31725;DHT22;18306;40.960;14.836;2023-05-15T08:28:07;17.40;99.90
31725;DHT22;18306;40.960;14.836;2023-05-15T08:30:34;17.40;99.90
31725;DHT22;18306;40.960;14.836;2023-05-15T08:33:01;17.50;99.90
31725;DHT22;18306;40.960;14.836;2023-05-15T08:35:28;17.50;99.90
31725;DHT22;18306;40.960;14.836;2023-05-15T08:37:58;17.50;99.90
31725;DHT22;18306;40.960;14.836;2023-05-15T08:40:26;17.60;99.90
31725;DHT22;18306;40.960;14.836;2023-05-15T08:42:54;17.70;99.90
31725;DHT22;18306;40.960;14.836;2023-05-15T08:45:23;17.70;99.90
31725;DHT22;18306;40.960;14.836;2023-05-15T08:47:50;17.70;99.90
31725;DHT22;18306;40.960;14.836;2023-05-15T08:50:18;17.70;99.90
31725;DHT22;18306;40.960;14.836;2023-05-15T08:52:46;17.60;99.90
31725;DHT22;18306;40.960;14.836;2023-05-15T08:55:14;17.70;99.90
31725;DHT22;18306;40.960;14.836;2023-05-15T08:57:42;17.80;99.90
31725;DHT22;18306;40.960;14.836;2023-05-15T09:00:10;17.70;99.90
31725;DHT22;18306;40.960;14.836;2023-05-15T09:02:40;17.60;99.90
31725;DHT22;18306;40.960;14.836;2023-05-15T09:05:08;17.70;99.90
31725;DHT22;18306;40.960;14.836;2023-05-15T09:07:37;17.70;99.90
31725;DHT22;18306;40.960;14.836;2023-05-15T09:10:05;17.70;99.90
31725;DHT22;18306;40.960;14.836;2023-05-15T09:12:33;17.60;99.90
31725;DHT22;18306;40.960;14.836;2023-05-15T09:15:13;17.60;99.90
31725;DHT22;18306;40.960;14.836;2023-05-15T09:17:42;17.70;99.90
31725;DHT22;18306;40.960;14.836;2023-05-15T09:20:35;17.70;99.90
31725;DHT22;18306;40.960;14.836;2023-05-15T09:23:05;17.40;99.90
31725;DHT22;18306;40.960;14.836;2023-05-15T09:25:47;17.50;99.90
31725;DHT22;18306;40.960;14.836;2023-05-15T09:28:29;17.60;99.90
31725;DHT22;18306;40.960;14.836;2023-05-15T09:31:02;17.60;99.90
31725;DHT22;18306;40.960;14.836;2023-05-15T09:33:36;17.60;99.90
31725;DHT22;18306;40.960;14.836;2023-05-15T09:36:20;17.80;99.90
31725;DHT22;18306;40.960;14.836;2023-05-15T09:38:58;17.90;99.90
31725;DHT22;18306;40.960;14.836;2023-05-15T09:41:34;18.10;99.90
31725;DHT22;18306;40.960;14.836;2023-05-15T09:44:34;18.00;99.90
31725;DHT22;18306;40.960;14.836;2023-05-15T09:47:04;18.10;99.90
31725;DHT22;18306;40.960;14.836;2023-05-15T09:49:31;18.20;99.90
31725;DHT22;18306;40.960;14.836;2023-05-15T09:52:01;18.00;99.90
31725;DHT22;18306;40.960;14.836;2023-05-15T09:54:39;17.80;99.90
31725;DHT22;18306;40.960;14.836;2023-05-15T09:57:08;17.80;99.90
31725;DHT22;18306;40.960;14.836;2023-05-15T09:59:43;17.70;99.90
31725;DHT22;18306;40.960;14.836;2023-05-15T10:02:25;17.50;99.90
31725;DHT22;18306;40.960;14.836;2023-05-15T10:05:00;17.60;99.90
31725;DHT22;18306;40.960;14.836;2023-05-15T10:07:32;17.50;99.90
31725;DHT22;18306;40.960;14.836;2023-05-15T10:10:03;17.70;99.90
31725;DHT22;18306;40.960;14.836;2023-05-15T10:12:33;17.80;99.90
31725;DHT22;18306;40.960;14.836;2023-05-15T10:15:03;17.80;99.90
31725;DHT22;18306;40.960;14.836;2023-05-15T10:17:33;18.00;99.90
31725;DHT22;18306;40.960;14.836;2023-05-15T10:20:02;18.00;99.90
31725;DHT22;18306;40.960;14.836;2023-05-15T10:22:36;18.10;99.90
31725;DHT22;18306;40.960;14.836;2023-05-15T10:25:26;18.10;99.90
31725;DHT22;18306;40.960;14.836;2023-05-15T10:27:55;18.00;99.90
31725;DHT22;18306;40.960;14.836;2023-05-15T10:30:23;18.00;99.90
31725;DHT22;18306;40.960;14.836;2023-05-15T10:32:52;18.10;99.90
31725;DHT22;18306;40.960;14.836;2023-05-15T10:35:21;18.30;99.90
31725;DHT22;18306;40.960;14.836;2023-05-15T10:37:48;18.20;99.90
31725;DHT22;18306;40.960;14.836;2023-05-15T10:40:16;18.10;99.90
31725;DHT22;18306;40.960;14.836;2023-05-15T10:42:45;18.20;99.90
31725;DHT22;18306;40.960;14.836;2023-05-15T10:45:13;18.10;99.90
31725;DHT22;18306;40.960;14.836;2023-05-15T10:47:42;18.10;99.90
31725;DHT22;18306;40.960;14.836;2023-05-15T10:50:11;18.20;99.90
31725;DHT22;18306;40.960;14.836;2023-05-15T10:52:39;18.10;99.90
31725;DHT22;18306;40.960;14.836;2023-05-15T10:55:17;18.10;99.90
31725;DHT22;18306;40.960;14.836;2023-05-15T10:57:47;18.20;99.90
31725;DHT22;18306;40.960;14.836;2023-05-15T11:00:25;18.30;99.90
31725;DHT22;18306;40.960;14.836;2023-05-15T11:02:53;18.40;99.90
31725;DHT22;18306;40.960;14.836;2023-05-15T11:05:23;18.50;99.90
31725;DHT22;18306;40.960;14.836;2023-05-15T11:08:25;18.40;99.90
31725;DHT22;18306;40.960;14.836;2023-05-15T11:10:53;18.40;99.90
31725;DHT22;18306;40.960;14.836;2023-05-15T11:13:20;18.40;99.90
31725;DHT22;18306;40.960;14.836;2023-05-15T11:15:48;18.30;99.90
31725;DHT22;18306;40.960;14.836;2023-05-15T11:18:15;18.10;99.90
31725;DHT22;18306;40.960;14.836;2023-05-15T11:23:21;17.90;99.90
31725;DHT22;18306;40.960;14.836;2023-05-15T11:25:53;17.90;99.90
31725;DHT22;18306;40.960;14.836;2023-05-15T11:28:23;17.80;99.90
31725;DHT22;18306;40.960;14.836;2023-05-15T11:30:51;17.70;99.90
31725;DHT22;18306;40.960;14.836;2023-05-15T11:33:19;17.60;99.90
31725;DHT22;18306;40.960;14.836;2023-05-15T11:35:47;17.60;99.90
31725;DHT22;18306;40.960;14.836;2023-05-15T11:38:18;17.50;99.90
31725;DHT22;18306;40.960;14.836;2023-05-15T11:40:54;17.40;99.90
31725;DHT22;18306;40.960;14.836;2023-05-15T11:46:04;17.50;99.90
31725;DHT22;18306;40.960;14.836;2023-05-15T11:48:42;17.50;99.90
31725;DHT22;18306;40.960;14.836;2023-05-15T11:51:29;17.60;99.90
31725;DHT22;18306;40.960;14.836;2023-05-15T11:53:59;17.70;99.90
31725;DHT22;18306;40.960;14.836;2023-05-15T11:56:29;17.60;99.90
31725;DHT22;18306;40.960;14.836;2023-05-15T11:58:59;17.70;99.90
31725;DHT22;18306;40.960;14.836;2023-05-15T12:01:27;17.70;99.90
31725;DHT22;18306;40.960;14.836;2023-05-15T12:03:59;17.70;99.90
31725;DHT22;18306;40.960;14.836;2023-05-15T12:06:26;17.70;99.90
31725;DHT22;18306;40.960;14.836;2023-05-15T12:08:53;17.80;99.90
31725;DHT22;18306;40.960;14.836;2023-05-15T12:11:23;17.80;99.90
31725;DHT22;18306;40.960;14.836;2023-05-15T12:13:51;17.70;99.90
31725;DHT22;18306;40.960;14.836;2023-05-15T12:16:24;17.90;99.90
31725;DHT22;18306;40.960;14.836;2023-05-15T12:18:52;17.90;99.90
31725;DHT22;18306;40.960;14.836;2023-05-15T12:21:19;18.00;99.90
31725;DHT22;18306;40.960;14.836;2023-05-15T12:23:52;17.90;99.90
31725;DHT22;18306;40.960;14.836;2023-05-15T12:26:21;18.00;99.90
31725;DHT22;18306;40.960;14.836;2023-05-15T12:28:50;17.90;99.90
31725;DHT22;18306;40.960;14.836;2023-05-15T12:31:18;17.80;99.90
31725;DHT22;18306;40.960;14.836;2023-05-15T12:33:46;17.90;99.90
31725;DHT22;18306;40.960;14.836;2023-05-15T12:36:19;18.00;99.90
31725;DHT22;18306;40.960;14.836;2023-05-15T12:38:47;18.00;99.90
31725;DHT22;18306;40.960;14.836;2023-05-15T12:41:14;17.90;99.90
31725;DHT22;18306;40.960;14.836;2023-05-15T12:43:42;17.90;99.90
31725;DHT22;18306;40.960;14.836;2023-05-15T12:46:12;18.10;99.90
31725;DHT22;18306;40.960;14.836;2023-05-15T12:48:40;18.20;99.90
31725;DHT22;18306;40.960;14.836;2023-05-15T12:51:08;18.20;99.90
31725;DHT22;18306;40.960;14.836;2023-05-15T12:53:35;18.30;99.90
31725;DHT22;18306;40.960;14.836;2023-05-15T12:56:07;18.30;99.90
31725;DHT22;18306;40.960;14.836;2023-05-15T12:58:37;18.30;99.90
31725;DHT22;18306;40.960;14.836;2023-05-15T13:01:04;18.20;99.90
31725;DHT22;18306;40.960;14.836;2023-05-15T13:03:31;18.10;99.90
31725;DHT22;18306;40.960;14.836;2023-05-15T13:06:02;18.30;99.90
31725;DHT22;18306;40.960;14.836;2023-05-15T13:08:40;18.30;99.90
31725;DHT22;18306;40.960;14.836;2023-05-15T13:11:12;18.10;99.90
31725;DHT22;18306;40.960;14.836;2023-05-15T13:13:45;18.00;99.90
31725;DHT22;18306;40.960;14.836;2023-05-15T13:16:19;17.90;99.90
31725;DHT22;18306;40.960;14.836;2023-05-15T13:18:47;17.80;99.90
31725;DHT22;18306;40.960;14.836;2023-05-15T13:21:14;17.60;99.90
31725;DHT22;18306;40.960;14.836;2023-05-15T13:23:42;17.50;99.90
31725;DHT22;18306;40.960;14.836;2023-05-15T13:26:09;17.50;99.90
31725;DHT22;18306;40.960;14.836;2023-05-15T13:28:36;17.60;99.90
31725;DHT22;18306;40.960;14.836;2023-05-15T13:31:04;17.70;99.90
31725;DHT22;18306;40.960;14.836;2023-05-15T13:33:31;17.70;99.90
31725;DHT22;18306;40.960;14.836;2023-05-15T13:35:59;17.80;99.90
31725;DHT22;18306;40.960;14.836;2023-05-15T13:38:26;17.90;99.90
31725;DHT22;18306;40.960;14.836;2023-05-15T13:40:54;18.00;99.90
31725;DHT22;18306;40.960;14.836;2023-05-15T13:43:21;17.90;99.90
31725;DHT22;18306;40.960;14.836;2023-05-15T13:45:48;17.70;99.90
31725;DHT22;18306;40.960;14.836;2023-05-15T13:48:18;17.70;99.90
31725;DHT22;18306;40.960;14.836;2023-05-15T13:50:45;17.60;99.90
31725;DHT22;18306;40.960;14.836;2023-05-15T13:53:12;17.80;99.90
31725;DHT22;18306;40.960;14.836;2023-05-15T13:55:43;17.80;99.90
31725;DHT22;18306;40.960;14.836;2023-05-15T13:58:12;17.80;99.90
31725;DHT22;18306;40.960;14.836;2023-05-15T14:00:40;17.90;99.90
31725;DHT22;18306;40.960;14.836;2023-05-15T14:03:08;17.90;99.90
31725;DHT22;18306;40.960;14.836;2023-05-15T14:05:35;17.80;99.90
31725;DHT22;18306;40.960;14.836;2023-05-15T14:08:02;17.80;99.90
31725;DHT22;18306;40.960;14.836;2023-05-15T14:10:30;17.90;99.90
31725;DHT22;18306;40.960;14.836;2023-05-15T14:12:57;17.90;99.90
31725;DHT22;18306;40.960;14.836;2023-05-15T14:15:24;18.00;99.90
31725;DHT22;18306;40.960;14.836;2023-05-15T14:17:51;18.10;99.90
31725;DHT22;18306;40.960;14.836;2023-05-15T14:20:18;18.30;99.90
31725;DHT22;18306;40.960;14.836;2023-05-15T14:22:47;18.30;99.90
31725;DHT22;18306;40.960;14.836;2023-05-15T14:25:14;18.50;99.90
31725;DHT22;18306;40.960;14.836;2023-05-15T14:27:41;18.40;99.90
31725;DHT22;18306;40.960;14.836;2023-05-15T14:30:08;18.40;99.90
31725;DHT22;18306;40.960;14.836;2023-05-15T14:32:36;18.40;99.90
31725;DHT22;18306;40.960;14.836;2023-05-15T14:35:03;18.50;99.90
31725;DHT22;18306;40.960;14.836;2023-05-15T14:37:30;18.50;99.90
31725;DHT22;18306;40.960;14.836;2023-05-15T14:39:57;18.60;99.90
31725;DHT22;18306;40.960;14.836;2023-05-15T14:42:25;18.60;99.90
31725;DHT22;18306;40.960;14.836;2023-05-15T14:44:52;18.60;99.90
31725;DHT22;18306;40.960;14.836;2023-05-15T14:47:20;18.50;99.90
31725;DHT22;18306;40.960;14.836;2023-05-15T14:49:46;18.40;99.90
31725;DHT22;18306;40.960;14.836;2023-05-15T14:52:14;18.40;99.90
31725;DHT22;18306;40.960;14.836;2023-05-15T14:54:41;18.50;99.90
31725;DHT22;18306;40.960;14.836;2023-05-15T14:57:08;18.40;99.90
31725;DHT22;18306;40.960;14.836;2023-05-15T14:59:35;18.30;99.90
31725;DHT22;18306;40.960;14.836;2023-05-15T15:02:02;18.10;99.90
31725;DHT22;18306;40.960;14.836;2023-05-15T15:04:30;17.90;99.90
31725;DHT22;18306;40.960;14.836;2023-05-15T15:07:02;17.90;99.90
31725;DHT22;18306;40.960;14.836;2023-05-15T15:09:30;18.00;99.90
31725;DHT22;18306;40.960;14.836;2023-05-15T15:11:57;18.00;99.90
31725;DHT22;18306;40.960;14.836;2023-05-15T15:14:24;17.80;99.90
31725;DHT22;18306;40.960;14.836;2023-05-15T15:16:51;17.70;99.90
31725;DHT22;18306;40.960;14.836;2023-05-15T15:19:18;17.70;99.90
31725;DHT22;18306;40.960;14.836;2023-05-15T15:21:46;17.70;99.90
31725;DHT22;18306;40.960;14.836;2023-05-15T15:24:13;17.80;99.90
31725;DHT22;18306;40.960;14.836;2023-05-15T15:26:40;17.90;99.90
31725;DHT22;18306;40.960;14.836;2023-05-15T15:29:07;17.90;99.90
31725;DHT22;18306;40.960;14.836;2023-05-15T15:31:34;17.90;99.90
31725;DHT22;18306;40.960;14.836;2023-05-15T15:34:01;17.80;99.90
31725;DHT22;18306;40.960;14.836;2023-05-15T15:36:29;17.80;99.90
31725;DHT22;18306;40.960;14.836;2023-05-15T15:38:56;17.70;99.90
31725;DHT22;18306;40.960;14.836;2023-05-15T15:41:24;17.70;99.90
31725;DHT22;18306;40.960;14.836;2023-05-15T15:43:51;17.90;99.90
31725;DHT22;18306;40.960;14.836;2023-05-15T15:46:18;18.10;99.90
31725;DHT22;18306;40.960;14.836;2023-05-15T15:48:45;18.30;99.90
31725;DHT22;18306;40.960;14.836;2023-05-15T15:51:12;18.40;99.90
31725;DHT22;18306;40.960;14.836;2023-05-15T15:53:39;18.50;99.90
31725;DHT22;18306;40.960;14.836;2023-05-15T15:56:06;18.30;99.90